Bei Facebook empfehlenBei Twitter postenGoogle plusPinterest

Das Wetter im Erzgebirge am 02.03.2017

Wetter und Klima am 02.03.2017 Holzhau im Erzgebirge (630m ü.NN)
Letzte gemessene Temperatur und Uhrzeit der Messung23:45:00 Uhr1.90 °C
Temperatur (Maximum / Höchstwert) und Uhrzeit der Messung10:15:00 Uhr6.80 °C
Temperatur (Minimum / Tiefstwert) und Uhrzeit der Messung21:45:001.00 °C
Errechneter Absolutwert der Temperaturschwankungen zwischen Tmin und Tmax des Tages5.80 K
Errechnete Tagesmitteltemperatur3.45833 °C
Gesamt - Niederschlag des Tages (in flüssiger Form)1.56 Liter / m²
Luftdruck (Maximum / Höchstwert) und Zeitpunkt der Messung23:45:00 Uhr1010.50 hPa
Luftdruck (Minimum / Tiefstwert) und Zeitpunkt der Messung05:30:00 Uhr997.20 hPa
Errechneter Absolutwert der Luftdruckschwankungen des Tages13.30 hPa
Höchste gemessene Windgeschwindigkeit und Uhrzeit der Messung14:00:00 Uhr25.20 km/h
Errechnete Windhäufigkeit in Relation zu den Messwerten des Tages70.83333 %
Niedrigste Windkühle (Windchill) und Zeitpunkt der Messung22:00:00 Uhr-2.00 °C
Taupunkt (Maximum / Höchstwert) und Uhrzeit der Messung08:30:00 Uhr2.00 °C
Taupunkt (Minimum / Tiefstwert) und Uhrzeit der Messung13:45:00-3.30 °C
Anzahl der automatisch eingelesenen Messwerte 96

Detaillierte Wetter- und Klima- Messwerte für den 02.03.2017 in Holzhau im Erzgebirge (630m ü.NN)
ZeitTemperaturLuftdruckRel. LuftfeuchteWindWindrichtungWindchillTaupunktNiederschlag l/m²
23:45:001.90 °C1010.50 hPa83.00 %5.40 km/hWSW0.40 °C-0.70 °C1.56
23:30:001.90 °C1010.30 hPa84.00 %-0.50 °C1.56
23:15:001.80 °C1010.10 hPa84.00 %0.36 km/hW1.80 °C-0.60 °C1.56
23:00:001.80 °C1010.10 hPa85.00 %5.04 km/hWNW0.40 °C-0.40 °C1.56
22:45:001.80 °C1009.60 hPa85.00 %1.44 km/hWSW1.80 °C-0.40 °C1.56
22:30:001.60 °C1009.50 hPa86.00 %3.24 km/hW1.60 °C-0.50 °C1.56
22:15:001.40 °C1009.40 hPa87.00 %2.52 km/hWNW1.40 °C-0.50 °C1.56
22:00:001.20 °C1009.10 hPa87.00 %10.44 km/hSW-2.00 °C-0.70 °C1.56
21:45:001.00 °C1009.00 hPa88.00 %2.52 km/hWNW1.00 °C-0.80 °C1.56
21:30:001.00 °C1008.80 hPa86.00 %-1.10 °C1.56
21:15:001.30 °C1008.80 hPa86.00 %-0.80 °C1.56
21:00:001.90 °C1008.80 hPa84.00 %-0.50 °C1.56
20:45:002.40 °C1008.60 hPa79.00 %3.60 km/hW2.40 °C-0.90 °C1.56
20:30:001.80 °C1008.20 hPa81.00 %9.00 km/hWNW-0.90 °C-1.10 °C1.04
20:15:001.40 °C1008.00 hPa83.00 %-1.20 °C1.04
20:00:001.20 °C1007.70 hPa83.00 %-1.40 °C1.04
19:45:001.30 °C1007.70 hPa83.00 %-1.30 °C1.04
19:30:001.40 °C1007.60 hPa84.00 %-1.00 °C1.04
19:15:001.30 °C1007.50 hPa83.00 %-1.30 °C1.04
19:00:001.40 °C1007.50 hPa83.00 %-1.20 °C1.04
18:45:001.90 °C1007.30 hPa81.00 %-1.00 °C1.04
18:30:002.30 °C1007.10 hPa78.00 %9.00 km/hWSW-0.30 °C-1.10 °C1.04
18:15:003.10 °C1007.00 hPa73.00 %11.88 km/hW0.00 °C-1.30 °C1.04
18:00:003.40 °C1006.30 hPa69.00 %11.88 km/hNW0.30 °C-1.70 °C1.04
17:45:003.50 °C1006.00 hPa68.00 %14.76 km/hW-0.10 °C-1.80 °C1.04
17:30:003.80 °C1005.90 hPa66.00 %9.00 km/hW1.50 °C-2.00 °C1.04
17:15:003.80 °C1005.70 hPa65.00 %11.88 km/hW0.80 °C-2.20 °C1.04
17:00:003.80 °C1005.50 hPa66.00 %-2.00 °C1.04
16:45:003.90 °C1005.30 hPa65.00 %4.68 km/hW3.90 °C-2.10 °C1.04
16:30:003.90 °C1005.10 hPa66.00 %14.76 km/hW0.40 °C-1.90 °C1.04
16:15:004.10 °C1005.00 hPa64.00 %15.84 km/hSW0.50 °C-2.10 °C1.04
16:00:004.50 °C1004.50 hPa61.00 %13.32 km/hW1.40 °C-2.40 °C1.04
15:45:004.90 °C1004.30 hPa60.00 %3.60 km/hW4.90 °C-2.20 °C1.04
15:30:004.80 °C1004.00 hPa59.00 %5.76 km/hW3.60 °C-2.50 °C1.04
15:15:004.90 °C1003.70 hPa59.00 %14.04 km/hW1.80 °C-2.40 °C1.04
15:00:005.10 °C1003.40 hPa57.00 %9.36 km/hW2.90 °C-2.70 °C1.04
14:45:004.90 °C1003.30 hPa58.00 %-2.70 °C1.04
14:30:004.90 °C1003.10 hPa56.00 %8.64 km/hWNW2.90 °C-3.10 °C1.04
14:15:005.30 °C1002.70 hPa55.00 %8.64 km/hWSW3.30 °C-3.00 °C1.04
14:00:005.70 °C1002.60 hPa53.00 %25.20 km/hWNW1.40 °C-3.10 °C1.04
13:45:006.10 °C1002.20 hPa51.00 %7.56 km/hNW4.50 °C-3.30 °C1.04
13:30:006.50 °C1001.70 hPa51.00 %10.08 km/hW4.40 °C-2.90 °C1.04
13:15:006.70 °C1001.80 hPa52.00 %-2.40 °C1.04
13:00:005.90 °C1001.60 hPa55.00 %13.32 km/hWNW3.10 °C-2.40 °C1.04
12:45:005.10 °C1001.80 hPa57.00 %2.88 km/hNW5.10 °C-2.70 °C1.04
12:30:005.50 °C1001.60 hPa56.00 %24.12 km/hW1.20 °C-2.60 °C1.04
12:15:005.90 °C1001.50 hPa56.00 %10.44 km/hW3.60 °C-2.20 °C1.04
12:00:005.90 °C1001.00 hPa54.00 %9.00 km/hWNW4.00 °C-2.70 °C1.04
11:45:005.50 °C1001.30 hPa59.00 %5.76 km/hS4.40 °C-1.90 °C1.04
11:30:005.10 °C1000.70 hPa65.00 %7.92 km/hNW3.30 °C-0.90 °C1.04
11:15:005.30 °C1000.50 hPa62.00 %5.04 km/hWSW4.40 °C-1.40 °C1.04
11:00:005.50 °C999.90 hPa63.00 %15.84 km/hNW2.20 °C-1.00 °C1.04
10:45:004.10 °C999.70 hPa73.00 %5.40 km/hNW2.90 °C-0.30 °C1.04
10:30:005.00 °C999.70 hPa73.00 %1.80 km/hWNW5.00 °C0.60 °C1.04
10:15:006.80 °C999.20 hPa66.00 %10.44 km/hW4.70 °C0.90 °C1.04
10:00:006.70 °C998.90 hPa69.00 %12.60 km/hWNW4.20 °C1.40 °C1.04
09:45:006.80 °C998.60 hPa68.00 %8.28 km/hSW5.20 °C1.30 °C1.04
09:30:006.40 °C998.60 hPa68.00 %12.60 km/hNW3.80 °C0.90 °C1.04
09:15:006.40 °C998.70 hPa69.00 %8.64 km/hW4.60 °C1.10 °C1.04
09:00:005.90 °C998.50 hPa73.00 %6.12 km/hW4.70 °C1.40 °C1.04
08:45:005.50 °C998.60 hPa76.00 %6.12 km/hW4.30 °C1.60 °C1.04
08:30:005.20 °C998.10 hPa80.00 %8.28 km/hW3.30 °C2.00 °C1.04
08:15:004.50 °C998.10 hPa83.00 %6.84 km/hWSW2.90 °C1.90 °C1.04
08:00:004.10 °C997.90 hPa84.00 %6.48 km/hWSW2.50 °C1.60 °C1.04
07:45:003.90 °C997.50 hPa85.00 %5.04 km/hSW2.80 °C1.60 °C1.04
07:30:003.60 °C997.50 hPa87.00 %7.20 km/hSSW1.70 °C1.60 °C1.04
07:15:003.30 °C997.60 hPa87.00 %10.44 km/hSW0.50 °C1.30 °C1.04
07:00:003.50 °C997.70 hPa88.00 %6.12 km/hSSW2.00 °C1.70 °C1.04
06:45:003.50 °C997.40 hPa89.00 %1.90 °C1.04
06:30:003.40 °C997.40 hPa89.00 %10.08 km/hSSW0.70 °C1.80 °C1.04
06:15:003.00 °C997.30 hPa90.00 %6.48 km/hSW1.30 °C1.50 °C1.04
06:00:002.60 °C997.30 hPa90.00 %1.80 km/hWSW2.60 °C1.10 °C1.04
05:45:002.80 °C997.40 hPa90.00 %1.44 km/hSW2.80 °C1.30 °C1.04
05:30:003.00 °C997.20 hPa90.00 %1.50 °C1.04
05:15:002.90 °C997.30 hPa91.00 %1.60 °C1.04
05:00:002.60 °C997.40 hPa90.00 %1.10 °C0.52
04:45:002.60 °C997.80 hPa90.00 %2.88 km/hSO2.60 °C1.10 °C0.52
04:30:002.60 °C997.60 hPa90.00 %2.16 km/hSSW2.60 °C1.10 °C0.52
04:15:002.60 °C997.70 hPa90.00 %1.08 km/hSO2.60 °C1.10 °C0.52
04:00:002.50 °C997.80 hPa89.00 %0.72 km/hS2.50 °C0.90 °C0.52
03:45:002.40 °C997.70 hPa90.00 %1.44 km/hS2.40 °C0.90 °C0.52
03:30:002.20 °C997.80 hPa89.00 %0.60 °C 
03:15:002.10 °C998.00 hPa89.00 %3.60 km/hSSO2.10 °C0.50 °C 
03:00:001.90 °C998.00 hPa89.00 %0.30 °C 
02:45:001.80 °C998.30 hPa89.00 %0.20 °C 
02:30:001.80 °C998.30 hPa88.00 %0.00 °C 
02:15:001.80 °C998.70 hPa88.00 %0.00 °C 
02:00:001.90 °C998.90 hPa88.00 %0.10 °C 
01:45:001.80 °C998.90 hPa86.00 %-0.30 °C 
01:30:002.10 °C998.90 hPa86.00 %0.00 °C 
01:15:002.20 °C999.30 hPa86.00 %0.10 °C 
01:00:002.30 °C999.70 hPa85.00 %2.16 km/hSW2.30 °C0.00 °C 
00:45:002.40 °C999.90 hPa84.00 %0.00 °C 
00:30:002.40 °C1000.00 hPa84.00 %2.16 km/hSSO2.40 °C0.00 °C 
00:15:002.40 °C1000.20 hPa82.00 %3.24 km/hSSO2.40 °C-0.40 °C 
00:00:002.40 °C1000.40 hPa82.00 %0.72 km/hSSO2.40 °C-0.40 °C 

Permanenter Link zu dieser Seite: Wetter im Erzgebirge am 02.03.2017
Performance-Info: Die Erstellung der Seite / Statistik(en) / Tabelle(n) erforderte 5 Datenbankserver-Abfrage(n) und dauerte 95 Millisekunden. (Dieser Messwert ist von der Gesamt-Auslastung des Servers abhängig.)
Erzgebirge - Wetter | Erzgebirge - Wetter (Mobilgeräte) | Komplette Klimadatenbank